Time;durP1;ratioP1;P1;durP2;ratioP2;P2;SDS_P1;SDS_P2;PMS_P1;PMS_P2;Temp;Humidity;BMP_temperature;BMP_pressure;BME280_temperature;BME280_humidity;BME280_pressure;Samples;Min_cycle;Max_cycle;Signal;HPM_P1;HPM_P2
2022/05/31 00:04:38;;;;;;;1.42;1.20;;;;;;;23.65;40.75;100276.03;20764618;27;100821;-75
2022/05/31 00:14:39;;;;;;;2.10;1.27;;;;;;;23.65;40.79;100257.53;20770135;27;98816;-74
2022/05/31 00:24:41;;;;;;;1.35;1.20;;;;;;;23.64;40.83;100269.91;20770347;27;97616;-76
2022/05/31 00:34:46;;;;;;;2.22;1.13;;;;;;;23.62;40.76;100284.22;20764505;27;98294;-76
2022/05/31 00:44:46;;;;;;;1.63;1.20;;;;;;;23.60;41.06;100292.31;20767027;27;97109;-75
2022/05/31 00:54:53;;;;;;;1.45;1.20;;;;;;;23.58;41.04;100296.06;20767394;27;97499;-75
2022/05/31 01:04:57;;;;;;;1.35;1.13;;;;;;;23.60;40.87;100304.69;20763618;27;97663;-75
2022/05/31 01:14:58;;;;;;;1.90;1.10;;;;;;;23.58;41.07;100317.19;20773921;27;100230;-75
2022/05/31 01:25:07;;;;;;;1.55;1.00;;;;;;;23.54;41.21;100316.63;20763884;27;99923;-76
2022/05/31 01:35:18;;;;;;;1.15;1.05;;;;;;;23.54;40.89;100323.75;20771177;27;99380;-75
2022/05/31 01:45:26;;;;;;;1.97;1.30;;;;;;;23.53;41.15;100333.47;20781728;27;98605;-76
2022/05/31 01:55:31;;;;;;;2.08;1.40;;;;;;;23.51;41.31;100340.72;20780768;27;98287;-76
2022/05/31 02:05:32;;;;;;;2.85;1.15;;;;;;;23.49;41.24;100353.22;20774644;27;98647;-75
2022/05/31 02:15:33;;;;;;;2.53;1.20;;;;;;;23.49;41.06;100353.22;20768506;27;98786;-75
2022/05/31 02:25:33;;;;;;;1.20;1.10;;;;;;;23.47;41.21;100342.78;20777030;27;97132;-74
2022/05/31 02:35:34;;;;;;;1.52;1.17;;;;;;;23.46;41.26;100346.41;20768222;27;97956;-75
2022/05/31 02:45:34;;;;;;;1.33;1.17;;;;;;;23.46;40.98;100362.25;20755193;27;97265;-75
2022/05/31 02:55:35;;;;;;;3.15;1.20;;;;;;;23.45;41.12;100359.75;20765898;27;97419;-74
2022/05/31 03:05:35;;;;;;;3.33;1.20;;;;;;;23.43;41.18;100359.84;20763999;27;98021;-76
2022/05/31 03:15:37;;;;;;;1.23;1.13;;;;;;;23.42;41.22;100358.19;20762726;27;99741;-76
2022/05/31 03:25:40;;;;;;;1.20;1.07;;;;;;;23.39;41.24;100347.91;20764915;27;98686;-75
2022/05/31 03:35:41;;;;;;;3.15;1.30;;;;;;;23.41;41.17;100347.75;20762117;27;98062;-75
2022/05/31 03:45:43;;;;;;;1.43;1.33;;;;;;;23.37;41.36;100349.81;20752404;27;97241;-77
2022/05/31 03:55:44;;;;;;;1.27;1.17;;;;;;;23.37;41.10;100362.22;20766973;27;100899;-76
2022/05/31 04:05:45;;;;;;;2.00;1.20;;;;;;;23.36;41.21;100371.13;20764062;27;99905;-76
2022/05/31 04:15:46;;;;;;;2.90;1.40;;;;;;;23.34;41.46;100373.91;20774287;27;101020;-77
2022/05/31 04:25:46;;;;;;;1.58;1.20;;;;;;;23.37;41.82;100372.78;20753279;27;97612;-76
2022/05/31 04:35:47;;;;;;;4.43;1.60;;;;;;;23.38;42.34;100375.28;20752260;27;97489;-76
2022/05/31 04:45:47;;;;;;;5.55;1.90;;;;;;;23.41;42.29;100374.19;20779380;27;97468;-80
2022/05/31 04:55:48;;;;;;;4.53;1.90;;;;;;;23.42;42.03;100374.03;20771147;27;98955;-76
2022/05/31 05:05:48;;;;;;;11.82;2.22;;;;;;;23.44;42.33;100369.47;20774074;27;99085;-78
2022/05/31 05:15:51;;;;;;;7.13;2.40;;;;;;;22.97;39.90;100369.94;20783847;27;97920;-74
2022/05/31 05:25:53;;;;;;;4.15;2.20;;;;;;;22.63;40.12;100369.31;20786585;27;98499;-76
2022/05/31 05:35:54;;;;;;;2.00;1.57;;;;;;;22.68;40.14;100382.97;20774575;27;97650;-77
2022/05/31 05:45:54;;;;;;;4.25;2.13;;;;;;;22.74;40.33;100377.19;20788777;27;97663;-77
2022/05/31 05:55:55;;;;;;;10.45;2.40;;;;;;;22.89;41.16;100372.41;20779091;27;97385;-77
2022/05/31 06:05:56;;;;;;;7.63;2.30;;;;;;;22.97;41.11;100375.22;20805233;27;97236;-76
2022/05/31 06:15:57;;;;;;;7.33;2.70;;;;;;;23.06;41.02;100384.16;20808776;27;97215;-76
2022/05/31 06:25:58;;;;;;;2.45;2.03;;;;;;;23.12;40.88;100386.28;20807272;27;97956;-78
2022/05/31 06:36:01;;;;;;;2.35;1.52;;;;;;;23.17;40.72;100388.56;20806080;27;97288;-76
2022/05/31 06:46:07;;;;;;;4.20;1.60;;;;;;;23.21;40.96;100397.88;20813264;27;96922;-75
2022/05/31 07:06:27;;;;;;;2.50;1.48;;;;;;;23.27;40.84;100400.00;20644901;28;96867;-76
2022/05/31 07:16:28;;;;;;;2.90;1.73;;;;;;;23.31;40.60;100397.94;20641263;28;96949;-76
2022/05/31 07:26:28;;;;;;;1.80;1.33;;;;;;;23.34;40.86;100395.03;20642099;28;97050;-77
2022/05/31 07:36:29;;;;;;;2.40;1.38;;;;;;;23.37;40.64;100402.69;20643592;28;97109;-76
2022/05/31 07:46:29;;;;;;;2.63;1.50;;;;;;;23.40;40.55;100397.13;20644309;28;97182;-76
2022/05/31 07:56:30;;;;;;;4.10;1.45;;;;;;;23.44;40.52;100411.75;20789595;27;97573;-77
2022/05/31 08:06:33;;;;;;;1.98;1.30;;;;;;;23.45;40.63;100404.69;20809943;27;100410;-77
2022/05/31 08:16:34;;;;;;;2.22;1.27;;;;;;;23.48;40.72;100407.84;20782375;27;99086;-77
2022/05/31 08:26:35;;;;;;;2.97;1.20;;;;;;;23.50;40.53;100408.56;20805914;27;99448;-77
2022/05/31 08:36:35;;;;;;;6.55;1.35;;;;;;;23.52;40.33;100416.34;20818314;27;97330;-76
2022/05/31 08:47:01;;;;;;;2.97;1.30;;;;;;;23.56;40.53;100423.06;20820167;27;97660;-76
2022/05/31 08:57:09;;;;;;;5.25;1.42;;;;;;;23.59;40.60;100411.38;20828066;27;98095;-76
2022/05/31 09:07:24;;;;;;;1.63;1.23;;;;;;;23.63;40.98;100411.00;20804731;27;96843;-76
2022/05/31 09:18:04;;;;;;;3.20;1.10;;;;;;;23.64;40.78;100399.44;20818097;27;98392;-76
2022/05/31 09:28:32;;;;;;;4.03;1.20;;;;;;;23.69;40.80;100404.31;20599634;27;97312;-78
2022/05/31 09:39:04;;;;;;;2.50;1.50;;;;;;;23.71;40.80;100401.56;20813270;27;96953;-78
2022/05/31 09:49:23;;;;;;;1.98;1.40;;;;;;;23.73;40.85;100397.78;20786763;27;97691;-79
2022/05/31 09:59:26;;;;;;;3.53;1.35;;;;;;;23.74;41.03;100388.91;20778954;27;98840;-76
2022/05/31 10:09:43;;;;;;;2.47;1.50;;;;;;;23.76;40.87;100386.13;20800795;27;97830;-76
2022/05/31 10:19:43;;;;;;;1.98;1.42;;;;;;;23.78;40.97;100386.81;20796213;27;98591;-77
2022/05/31 10:30:07;;;;;;;4.68;1.70;;;;;;;23.80;41.48;100380.41;20796176;27;100636;-76
2022/05/31 10:40:15;;;;;;;4.43;2.40;;;;;;;23.73;39.57;100379.28;20777515;27;97441;-77
2022/05/31 10:50:16;;;;;;;9.68;4.88;;;;;;;23.50;38.72;100374.22;20803551;27;97957;-77
2022/05/31 11:00:42;;;;;;;8.23;4.47;;;;;;;23.48;39.12;100364.75;20810489;27;96968;-74
2022/05/31 11:11:37;;;;;;;10.18;5.10;;;;;;;23.51;38.73;100372.41;20792222;27;97848;-77
2022/05/31 11:21:21;;;;;;;7.68;5.20;;;;;;;23.53;39.20;100362.53;20804289;27;97815;-76
2022/05/31 11:31:28;;;;;;;7.68;4.18;;;;;;;23.59;38.65;100347.94;20812395;27;97184;-75
2022/05/31 11:41:38;;;;;;;9.20;3.97;;;;;;;23.61;38.52;100346.84;20802867;27;99016;-76
2022/05/31 11:52:14;;;;;;;5.25;3.05;;;;;;;23.62;38.39;100353.81;20803290;27;97586;-74
2022/05/31 12:02:37;;;;;;;5.97;2.97;;;;;;;23.72;38.26;100323.91;20790429;27;97793;-76
2022/05/31 12:12:42;;;;;;;5.00;3.10;;;;;;;23.89;41.28;100323.22;20797526;27;98231;-74
2022/05/31 12:22:52;;;;;;;5.57;2.95;;;;;;;24.04;44.58;100318.38;20782097;27;98677;-74
2022/05/31 12:32:54;;;;;;;7.22;2.67;;;;;;;24.13;44.36;100312.25;20765244;27;99750;-76
2022/05/31 12:42:54;;;;;;;5.87;2.50;;;;;;;24.22;43.68;100289.41;20806433;27;98852;-78
2022/05/31 13:03:34;;;;;;;4.55;2.28;;;;;;;24.29;37.62;100274.66;20802443;27;97643;-81
2022/05/31 13:24:27;;;;;;;3.90;2.10;;;;;;;24.38;38.01;100253.59;20783472;27;98450;-77
2022/05/31 13:34:28;;;;;;;5.75;2.20;;;;;;;24.41;38.00;100243.56;20822101;27;98066;-81
2022/05/31 13:44:34;;;;;;;3.13;2.40;;;;;;;24.44;37.44;100234.50;20825730;27;97124;-79
2022/05/31 13:54:42;;;;;;;5.68;3.10;;;;;;;24.47;36.41;100247.44;20809970;27;98133;-78
2022/05/31 14:05:03;;;;;;;5.00;2.95;;;;;;;24.45;36.80;100225.59;20804054;27;97158;-80
2022/05/31 14:15:05;;;;;;;8.68;3.97;;;;;;;24.41;36.64;100222.41;20792781;27;98003;-78
2022/05/31 14:25:09;;;;;;;7.35;3.70;;;;;;;24.50;37.35;100202.16;20794475;27;98230;-81
2022/05/31 14:35:17;;;;;;;4.95;3.75;;;;;;;24.53;36.72;100195.75;20760166;27;98757;-83
2022/05/31 14:45:26;;;;;;;6.72;3.30;;;;;;;24.56;37.31;100191.00;20777348;27;97201;-82
2022/05/31 14:55:30;;;;;;;4.53;2.47;;;;;;;24.54;36.70;100189.47;20810511;27;97145;-85
2022/05/31 15:05:33;;;;;;;4.82;2.40;;;;;;;24.57;36.94;100174.13;20825982;27;98774;-83
2022/05/31 15:25:55;;;;;;;1.90;1.33;;;;;;;24.67;36.85;100157.38;20805641;27;98340;-83
2022/05/31 15:35:58;;;;;;;2.90;1.02;;;;;;;24.61;35.81;100149.03;20756191;27;99519;-80
2022/05/31 15:45:59;;;;;;;2.22;1.50;;;;;;;24.68;36.67;100157.25;20793917;27;97722;-80
2022/05/31 15:56:01;;;;;;;2.70;1.45;;;;;;;24.79;36.17;100150.91;20794718;27;96928;-79
2022/05/31 16:06:02;;;;;;;2.13;1.20;;;;;;;24.81;35.95;100154.25;20771998;27;98384;-79
2022/05/31 16:16:04;;;;;;;3.30;1.63;;;;;;;24.84;36.46;100156.59;20792876;27;97724;-80
2022/05/31 16:26:05;;;;;;;10.03;5.20;;;;;;;24.80;36.15;100152.56;20764272;27;98657;-81
2022/05/31 16:36:25;;;;;;;16.37;2.87;;;;;;;24.74;36.52;100153.16;20773056;27;98940;-82
2022/05/31 16:46:29;;;;;;;2.50;1.35;;;;;;;24.68;35.91;100151.09;20797210;27;97330;-79
2022/05/31 16:56:36;;;;;;;10.82;4.88;;;;;;;24.69;37.00;100145.66;20812698;27;98340;-80
2022/05/31 17:16:56;;;;;;;2.53;1.38;;;;;;;24.58;37.09;100138.75;20806954;27;97705;-80
2022/05/31 17:26:58;;;;;;;1.85;1.50;;;;;;;24.50;37.53;100143.94;20790916;27;96926;-79
2022/05/31 17:37:00;;;;;;;4.00;1.63;;;;;;;24.55;38.67;100152.25;20802180;27;97663;-81
2022/05/31 17:47:00;;;;;;;2.25;1.77;;;;;;;24.65;39.29;100154.84;20800878;27;99617;-80
2022/05/31 17:57:02;;;;;;;1.80;1.50;;;;;;;24.70;39.58;100155.28;20791565;27;99839;-79
2022/05/31 18:07:03;;;;;;;3.30;1.73;;;;;;;24.73;39.99;100160.28;20783327;27;97630;-81
2022/05/31 18:17:05;;;;;;;4.72;1.73;;;;;;;24.75;39.98;100168.06;20786407;27;97976;-80
2022/05/31 18:27:10;;;;;;;3.58;1.63;;;;;;;24.74;40.24;100163.75;20768160;27;97844;-80
2022/05/31 18:47:16;;;;;;;4.13;2.00;;;;;;;24.75;40.25;100170.72;20777199;27;98671;-83
2022/05/31 18:57:17;;;;;;;4.10;2.03;;;;;;;24.72;40.04;100192.22;20793471;27;97226;-83
2022/05/31 19:07:18;;;;;;;2.87;1.83;;;;;;;24.69;40.23;100201.25;20795349;27;98328;-80
2022/05/31 19:17:18;;;;;;;6.97;2.20;;;;;;;24.68;40.53;100196.13;20793490;27;97683;-81
2022/05/31 19:27:20;;;;;;;3.90;1.90;;;;;;;24.67;40.33;100207.69;20802869;27;99672;-82
2022/05/31 19:37:22;;;;;;;5.60;2.10;;;;;;;24.62;40.71;100213.41;20799510;27;98500;-82
2022/05/31 19:47:23;;;;;;;2.35;1.95;;;;;;;24.59;40.71;100218.97;20783885;27;97427;-80
2022/05/31 19:57:27;;;;;;;4.43;2.35;;;;;;;24.57;41.01;100212.97;20809343;27;98716;-81
2022/05/31 20:07:31;;;;;;;2.70;2.17;;;;;;;24.53;40.67;100201.84;20785702;27;99643;-81
2022/05/31 20:17:32;;;;;;;5.15;2.38;;;;;;;24.51;41.03;100214.41;20805164;27;97936;-81
2022/05/31 20:27:32;;;;;;;2.72;2.17;;;;;;;24.49;41.52;100204.97;20791311;27;99405;-81
2022/05/31 20:37:33;;;;;;;3.67;2.05;;;;;;;24.46;41.49;100195.47;20795751;27;98475;-81
2022/05/31 20:47:34;;;;;;;4.00;2.20;;;;;;;24.42;41.75;100202.03;20796747;27;98821;-82
2022/05/31 20:57:35;;;;;;;2.40;1.90;;;;;;;24.40;41.98;100199.56;20809896;27;99608;-81
2022/05/31 21:07:37;;;;;;;;;;;;;;;24.37;42.08;100193.72;20817270;27;97154;-80
2022/05/31 21:17:37;;;;;;;3.13;2.17;;;;;;;24.34;42.22;100201.94;20814938;27;97394;-81
2022/05/31 21:27:38;;;;;;;3.25;2.20;;;;;;;24.30;42.26;100227.84;20811593;27;100923;-82
2022/05/31 21:37:38;;;;;;;2.20;2.03;;;;;;;24.29;42.38;100219.06;20806892;27;97547;-81
2022/05/31 21:47:39;;;;;;;1.80;1.70;;;;;;;24.27;42.29;100221.03;20801730;27;97685;-81
2022/05/31 21:57:41;;;;;;;2.85;2.15;;;;;;;24.25;42.63;100233.56;20800288;27;98934;-82
2022/05/31 22:07:42;;;;;;;3.88;2.20;;;;;;;24.24;43.04;100223.13;20789760;27;97708;-79
2022/05/31 22:17:43;;;;;;;3.38;2.22;;;;;;;24.22;43.16;100223.28;20779649;27;97758;-81
2022/05/31 22:27:46;;;;;;;2.22;2.00;;;;;;;24.21;43.26;100218.94;20771044;27;97595;-80
2022/05/31 22:37:50;;;;;;;2.67;2.10;;;;;;;24.20;43.13;100200.59;20778325;27;99029;-80
2022/05/31 22:47:52;;;;;;;4.03;2.47;;;;;;;24.18;43.30;100205.19;20781855;27;98956;-80
2022/05/31 22:57:57;;;;;;;3.33;2.25;;;;;;;24.15;43.18;100203.66;20802708;27;97543;-80
2022/05/31 23:07:58;;;;;;;2.60;2.40;;;;;;;24.14;43.28;100194.03;20779298;27;97909;-81
2022/05/31 23:17:59;;;;;;;3.17;2.50;;;;;;;24.11;43.18;100194.34;20788099;27;97858;-81
2022/05/31 23:28:01;;;;;;;4.20;2.60;;;;;;;24.10;43.28;100197.97;20794594;27;99098;-81
2022/05/31 23:38:01;;;;;;;;;;;;;;;24.08;43.19;100192.81;20773290;27;97551;-81
2022/05/31 23:48:02;;;;;;;4.15;2.50;;;;;;;24.06;43.33;100184.19;20773424;27;99593;-80
2022/05/31 23:58:03;;;;;;;3.88;2.30;;;;;;;24.04;43.35;100180.84;20784242;27;98238;-81
